sensor_id;sensor_type;location;lat;lon;timestamp;pressure;altitude;pressure_sealevel;temperature;humidity
14790;BME280;7486;51.010;10.366;2023-04-27T00:00:09;98557.06;;;2.68;62.71
14790;BME280;7486;51.010;10.366;2023-04-27T00:02:55;98551.84;;;2.68;62.53
14790;BME280;7486;51.010;10.366;2023-04-27T00:05:41;98542.91;;;2.70;62.54
14790;BME280;7486;51.010;10.366;2023-04-27T00:08:27;98547.44;;;2.68;62.95
14790;BME280;7486;51.010;10.366;2023-04-27T00:11:12;98546.91;;;2.64;63.09
14790;BME280;7486;51.010;10.366;2023-04-27T00:13:57;98546.66;;;2.58;64.12
14790;BME280;7486;51.010;10.366;2023-04-27T00:16:43;98546.16;;;2.54;65.36
14790;BME280;7486;51.010;10.366;2023-04-27T00:19:28;98544.13;;;2.48;64.95
14790;BME280;7486;51.010;10.366;2023-04-27T00:22:13;98547.13;;;2.26;66.14
14790;BME280;7486;51.010;10.366;2023-04-27T00:24:59;98540.56;;;2.22;66.69
14790;BME280;7486;51.010;10.366;2023-04-27T00:27:44;98542.41;;;2.39;66.11
14790;BME280;7486;51.010;10.366;2023-04-27T00:30:29;98547.41;;;2.50;65.74
14790;BME280;7486;51.010;10.366;2023-04-27T00:33:16;98542.88;;;2.52;65.18
14790;BME280;7486;51.010;10.366;2023-04-27T00:36:01;98545.25;;;2.46;65.49
14790;BME280;7486;51.010;10.366;2023-04-27T00:38:46;98546.94;;;2.37;66.27
14790;BME280;7486;51.010;10.366;2023-04-27T00:41:32;98515.63;;;2.28;66.56
14790;BME280;7486;51.010;10.366;2023-04-27T00:44:24;98542.34;;;2.49;65.35
14790;BME280;7486;51.010;10.366;2023-04-27T00:47:10;98537.63;;;2.52;65.37
14790;BME280;7486;51.010;10.366;2023-04-27T00:49:55;98511.56;;;2.43;64.81
14790;BME280;7486;51.010;10.366;2023-04-27T00:52:43;98531.28;;;2.55;64.48
14790;BME280;7486;51.010;10.366;2023-04-27T00:55:28;98486.88;;;2.28;64.89
14790;BME280;7486;51.010;10.366;2023-04-27T00:58:14;98536.75;;;2.61;64.68
14790;BME280;7486;51.010;10.366;2023-04-27T01:00:59;98547.06;;;2.63;64.69
14790;BME280;7486;51.010;10.366;2023-04-27T01:03:45;98540.56;;;2.49;64.63
14790;BME280;7486;51.010;10.366;2023-04-27T01:06:31;98543.34;;;2.38;65.27
14790;BME280;7486;51.010;10.366;2023-04-27T01:09:17;98544.03;;;2.40;65.52
14790;BME280;7486;51.010;10.366;2023-04-27T01:12:02;98542.94;;;2.43;65.53
14790;BME280;7486;51.010;10.366;2023-04-27T01:14:48;98544.94;;;2.49;66.07
14790;BME280;7486;51.010;10.366;2023-04-27T01:17:33;98544.78;;;2.50;66.02
14790;BME280;7486;51.010;10.366;2023-04-27T01:20:19;98552.41;;;2.44;66.65
14790;BME280;7486;51.010;10.366;2023-04-27T01:23:04;98551.97;;;2.48;66.65
14790;BME280;7486;51.010;10.366;2023-04-27T01:25:52;98472.56;;;2.04;66.63
14790;BME280;7486;51.010;10.366;2023-04-27T01:28:38;98544.22;;;2.56;66.57
14790;BME280;7486;51.010;10.366;2023-04-27T01:31:23;98547.78;;;2.55;67.09
14790;BME280;7486;51.010;10.366;2023-04-27T01:34:08;98535.16;;;2.51;67.09
14790;BME280;7486;51.010;10.366;2023-04-27T01:36:53;98543.16;;;2.49;67.38
14790;BME280;7486;51.010;10.366;2023-04-27T01:39:39;98546.44;;;2.51;67.06
14790;BME280;7486;51.010;10.366;2023-04-27T01:42:25;98542.03;;;2.52;67.06
14790;BME280;7486;51.010;10.366;2023-04-27T01:45:10;98518.78;;;2.31;67.11
14790;BME280;7486;51.010;10.366;2023-04-27T01:47:56;98551.66;;;2.51;67.40
14790;BME280;7486;51.010;10.366;2023-04-27T01:50:41;98551.13;;;2.48;67.73
14790;BME280;7486;51.010;10.366;2023-04-27T01:53:26;98550.91;;;2.41;68.29
14790;BME280;7486;51.010;10.366;2023-04-27T01:56:12;98527.50;;;2.22;69.27
14790;BME280;7486;51.010;10.366;2023-04-27T01:58:57;98557.56;;;2.26;69.23
14790;BME280;7486;51.010;10.366;2023-04-27T02:01:43;98471.50;;;1.70;69.66
14790;BME280;7486;51.010;10.366;2023-04-27T02:04:28;98569.09;;;2.06;70.25
14790;BME280;7486;51.010;10.366;2023-04-27T02:07:14;98564.22;;;2.21;71.10
14790;BME280;7486;51.010;10.366;2023-04-27T02:10:00;98554.97;;;2.26;69.67
14790;BME280;7486;51.010;10.366;2023-04-27T02:12:45;98571.72;;;2.33;69.34
14790;BME280;7486;51.010;10.366;2023-04-27T02:15:30;98565.56;;;2.25;69.06
14790;BME280;7486;51.010;10.366;2023-04-27T02:18:17;98574.31;;;2.43;68.53
14790;BME280;7486;51.010;10.366;2023-04-27T02:21:07;98544.25;;;2.29;68.26
14790;BME280;7486;51.010;10.366;2023-04-27T02:23:54;98573.94;;;2.55;67.21
14790;BME280;7486;51.010;10.366;2023-04-27T02:26:40;98582.84;;;2.62;66.87
14790;BME280;7486;51.010;10.366;2023-04-27T02:29:30;98589.03;;;2.61;66.55
14790;BME280;7486;51.010;10.366;2023-04-27T02:32:16;98585.47;;;2.62;66.59
14790;BME280;7486;51.010;10.366;2023-04-27T02:35:02;98582.69;;;2.64;66.21
14790;BME280;7486;51.010;10.366;2023-04-27T02:37:47;98587.69;;;2.57;66.41
14790;BME280;7486;51.010;10.366;2023-04-27T02:40:33;98599.69;;;2.50;66.97
14790;BME280;7486;51.010;10.366;2023-04-27T02:43:18;98599.16;;;2.47;67.71
14790;BME280;7486;51.010;10.366;2023-04-27T02:46:03;98599.75;;;2.41;67.41
14790;BME280;7486;51.010;10.366;2023-04-27T02:48:49;98604.91;;;2.23;68.77
14790;BME280;7486;51.010;10.366;2023-04-27T02:51:34;98558.72;;;1.87;69.93
14790;BME280;7486;51.010;10.366;2023-04-27T02:54:20;98598.41;;;2.00;70.95
14790;BME280;7486;51.010;10.366;2023-04-27T02:57:05;98602.69;;;1.91;71.01
14790;BME280;7486;51.010;10.366;2023-04-27T02:59:50;98599.84;;;1.85;71.44
14790;BME280;7486;51.010;10.366;2023-04-27T03:02:36;98601.06;;;1.81;71.98
14790;BME280;7486;51.010;10.366;2023-04-27T03:05:24;98603.41;;;1.84;71.86
14790;BME280;7486;51.010;10.366;2023-04-27T03:08:10;98607.25;;;1.80;71.82
14790;BME280;7486;51.010;10.366;2023-04-27T03:10:55;98612.47;;;1.80;71.40
14790;BME280;7486;51.010;10.366;2023-04-27T03:13:40;98616.56;;;1.92;71.51
14790;BME280;7486;51.010;10.366;2023-04-27T03:16:26;98618.22;;;1.93;71.61
14790;BME280;7486;51.010;10.366;2023-04-27T03:19:11;98617.69;;;1.89;71.79
14790;BME280;7486;51.010;10.366;2023-04-27T03:21:57;98616.03;;;1.98;72.23
14790;BME280;7486;51.010;10.366;2023-04-27T03:24:42;98554.19;;;1.79;71.31
14790;BME280;7486;51.010;10.366;2023-04-27T03:27:27;98619.25;;;2.19;70.30
14790;BME280;7486;51.010;10.366;2023-04-27T03:30:13;98608.69;;;2.11;69.45
14790;BME280;7486;51.010;10.366;2023-04-27T03:32:59;98593.06;;;1.92;70.10
14790;BME280;7486;51.010;10.366;2023-04-27T03:35:56;98627.66;;;2.13;69.75
14790;BME280;7486;51.010;10.366;2023-04-27T03:38:42;98621.88;;;2.19;69.57
14790;BME280;7486;51.010;10.366;2023-04-27T03:41:28;98545.00;;;1.85;69.57
14790;BME280;7486;51.010;10.366;2023-04-27T03:44:15;98627.88;;;2.29;69.77
14790;BME280;7486;51.010;10.366;2023-04-27T03:47:00;98627.75;;;2.21;69.79
14790;BME280;7486;51.010;10.366;2023-04-27T03:49:46;98630.50;;;2.20;69.93
14790;BME280;7486;51.010;10.366;2023-04-27T03:52:31;98628.44;;;2.23;70.74
14790;BME280;7486;51.010;10.366;2023-04-27T03:55:17;98603.28;;;2.22;69.97
14790;BME280;7486;51.010;10.366;2023-04-27T03:58:02;98622.97;;;2.44;69.53
14790;BME280;7486;51.010;10.366;2023-04-27T04:00:48;98612.22;;;2.47;68.83
14790;BME280;7486;51.010;10.366;2023-04-27T04:03:34;98602.81;;;2.36;69.18
14790;BME280;7486;51.010;10.366;2023-04-27T04:06:21;98554.63;;;2.11;68.94
14790;BME280;7486;51.010;10.366;2023-04-27T04:09:07;98610.69;;;2.54;68.82
14790;BME280;7486;51.010;10.366;2023-04-27T04:11:53;98618.25;;;2.57;68.34
14790;BME280;7486;51.010;10.366;2023-04-27T04:14:39;98610.38;;;2.57;68.27
14790;BME280;7486;51.010;10.366;2023-04-27T04:17:25;98565.22;;;2.37;68.00
14790;BME280;7486;51.010;10.366;2023-04-27T04:20:10;98593.16;;;2.64;68.16
14790;BME280;7486;51.010;10.366;2023-04-27T04:22:56;98609.66;;;2.64;68.08
14790;BME280;7486;51.010;10.366;2023-04-27T04:25:41;98611.63;;;2.62;67.93
14790;BME280;7486;51.010;10.366;2023-04-27T04:28:26;98617.16;;;2.59;68.30
14790;BME280;7486;51.010;10.366;2023-04-27T04:31:11;98614.13;;;2.54;68.54
14790;BME280;7486;51.010;10.366;2023-04-27T04:33:59;98566.41;;;2.25;69.02
14790;BME280;7486;51.010;10.366;2023-04-27T04:36:45;98614.41;;;2.51;68.37
14790;BME280;7486;51.010;10.366;2023-04-27T04:39:30;98616.38;;;2.49;68.51
14790;BME280;7486;51.010;10.366;2023-04-27T04:42:16;98616.66;;;2.46;69.28
14790;BME280;7486;51.010;10.366;2023-04-27T04:45:02;98549.53;;;2.10;68.98
14790;BME280;7486;51.010;10.366;2023-04-27T04:47:48;98575.75;;;2.28;69.34
14790;BME280;7486;51.010;10.366;2023-04-27T04:50:33;98575.19;;;2.24;69.23
14790;BME280;7486;51.010;10.366;2023-04-27T04:53:19;98609.78;;;2.45;69.04
14790;BME280;7486;51.010;10.366;2023-04-27T04:56:08;98612.78;;;2.50;68.77
14790;BME280;7486;51.010;10.366;2023-04-27T04:58:54;98613.59;;;2.51;68.64
14790;BME280;7486;51.010;10.366;2023-04-27T05:01:39;98621.06;;;2.46;69.60
14790;BME280;7486;51.010;10.366;2023-04-27T05:04:24;98512.94;;;1.83;70.54
14790;BME280;7486;51.010;10.366;2023-04-27T05:07:09;98623.69;;;2.46;71.06
14790;BME280;7486;51.010;10.366;2023-04-27T05:09:58;98623.28;;;2.41;71.00
14790;BME280;7486;51.010;10.366;2023-04-27T05:12:43;98624.75;;;2.16;71.84
14790;BME280;7486;51.010;10.366;2023-04-27T05:15:29;98607.69;;;2.22;71.83
14790;BME280;7486;51.010;10.366;2023-04-27T05:18:15;98632.00;;;2.59;70.95
14790;BME280;7486;51.010;10.366;2023-04-27T05:21:01;98636.81;;;2.63;71.21
14790;BME280;7486;51.010;10.366;2023-04-27T05:23:46;98643.84;;;2.53;70.17
14790;BME280;7486;51.010;10.366;2023-04-27T05:26:32;98637.59;;;2.64;71.18
14790;BME280;7486;51.010;10.366;2023-04-27T05:29:17;98642.94;;;2.72;70.42
14790;BME280;7486;51.010;10.366;2023-04-27T05:32:03;98651.94;;;2.33;71.15
14790;BME280;7486;51.010;10.366;2023-04-27T05:34:48;98660.50;;;2.25;71.05
14790;BME280;7486;51.010;10.366;2023-04-27T05:37:34;98639.91;;;2.03;72.01
14790;BME280;7486;51.010;10.366;2023-04-27T05:40:19;98649.81;;;1.99;72.87
14790;BME280;7486;51.010;10.366;2023-04-27T05:43:05;98643.25;;;1.86;73.73
14790;BME280;7486;51.010;10.366;2023-04-27T05:45:51;98568.38;;;1.77;72.04
14790;BME280;7486;51.010;10.366;2023-04-27T05:48:36;98656.44;;;2.40;71.46
14790;BME280;7486;51.010;10.366;2023-04-27T05:51:21;98661.19;;;2.54;71.04
14790;BME280;7486;51.010;10.366;2023-04-27T05:54:07;98659.84;;;2.78;68.67
14790;BME280;7486;51.010;10.366;2023-04-27T05:56:52;98664.06;;;2.88;67.13
14790;BME280;7486;51.010;10.366;2023-04-27T05:59:37;98660.47;;;2.89;66.73
14790;BME280;7486;51.010;10.366;2023-04-27T06:02:23;98665.47;;;2.83;67.45
14790;BME280;7486;51.010;10.366;2023-04-27T06:05:09;98667.44;;;2.81;67.63
14790;BME280;7486;51.010;10.366;2023-04-27T06:07:54;98603.13;;;2.51;67.66
14790;BME280;7486;51.010;10.366;2023-04-27T06:10:39;98667.84;;;3.03;66.58
14790;BME280;7486;51.010;10.366;2023-04-27T06:13:24;98640.91;;;2.66;68.86
14790;BME280;7486;51.010;10.366;2023-04-27T06:16:09;98664.41;;;3.21;67.35
14790;BME280;7486;51.010;10.366;2023-04-27T06:18:55;98650.63;;;3.28;65.66
14790;BME280;7486;51.010;10.366;2023-04-27T06:21:40;98684.53;;;3.20;70.20
14790;BME280;7486;51.010;10.366;2023-04-27T06:24:26;98674.03;;;3.47;65.09
14790;BME280;7486;51.010;10.366;2023-04-27T06:27:11;98681.97;;;3.73;64.12
14790;BME280;7486;51.010;10.366;2023-04-27T06:29:57;98682.47;;;3.77;63.82
14790;BME280;7486;51.010;10.366;2023-04-27T06:32:43;98687.72;;;3.77;62.24
14790;BME280;7486;51.010;10.366;2023-04-27T06:35:28;98680.88;;;3.84;62.97
14790;BME280;7486;51.010;10.366;2023-04-27T06:38:13;98679.47;;;3.89;64.05
14790;BME280;7486;51.010;10.366;2023-04-27T06:40:59;98681.75;;;4.10;63.71
14790;BME280;7486;51.010;10.366;2023-04-27T06:43:44;98686.47;;;4.32;62.43
14790;BME280;7486;51.010;10.366;2023-04-27T06:46:29;98693.78;;;4.21;62.23
14790;BME280;7486;51.010;10.366;2023-04-27T06:49:15;98674.00;;;4.08;63.03
14790;BME280;7486;51.010;10.366;2023-04-27T06:52:01;98689.81;;;4.16;61.45
14790;BME280;7486;51.010;10.366;2023-04-27T06:54:47;98697.16;;;4.13;61.83
14790;BME280;7486;51.010;10.366;2023-04-27T06:57:32;98674.91;;;4.17;60.98
14790;BME280;7486;51.010;10.366;2023-04-27T07:00:18;98626.22;;;3.89;59.77
14790;BME280;7486;51.010;10.366;2023-04-27T07:03:03;98693.22;;;4.35;61.16
14790;BME280;7486;51.010;10.366;2023-04-27T07:05:49;98689.78;;;4.42;60.73
14790;BME280;7486;51.010;10.366;2023-04-27T07:08:34;98690.09;;;4.39;59.34
14790;BME280;7486;51.010;10.366;2023-04-27T07:11:20;98639.13;;;4.42;59.25
14790;BME280;7486;51.010;10.366;2023-04-27T07:14:05;98698.53;;;4.25;60.56
14790;BME280;7486;51.010;10.366;2023-04-27T07:16:50;98643.44;;;3.91;62.82
14790;BME280;7486;51.010;10.366;2023-04-27T07:19:36;98655.16;;;4.73;58.72
14790;BME280;7486;51.010;10.366;2023-04-27T07:22:21;98643.75;;;4.90;57.15
14790;BME280;7486;51.010;10.366;2023-04-27T07:25:08;98628.94;;;4.73;60.34
14790;BME280;7486;51.010;10.366;2023-04-27T07:27:53;98665.84;;;5.21;56.99
14790;BME280;7486;51.010;10.366;2023-04-27T07:30:39;98630.28;;;5.43;53.71
14790;BME280;7486;51.010;10.366;2023-04-27T07:33:24;98692.19;;;6.18;53.14
14790;BME280;7486;51.010;10.366;2023-04-27T07:36:09;98631.09;;;5.76;50.92
14790;BME280;7486;51.010;10.366;2023-04-27T07:38:54;98684.13;;;6.36;50.26
14790;BME280;7486;51.010;10.366;2023-04-27T07:41:40;98695.69;;;6.02;51.31
14790;BME280;7486;51.010;10.366;2023-04-27T07:44:28;98670.84;;;5.56;56.10
14790;BME280;7486;51.010;10.366;2023-04-27T07:47:13;98688.59;;;6.03;55.59
14790;BME280;7486;51.010;10.366;2023-04-27T07:49:58;98700.41;;;6.23;54.29
14790;BME280;7486;51.010;10.366;2023-04-27T07:52:44;98693.19;;;6.01;54.78
14790;BME280;7486;51.010;10.366;2023-04-27T07:55:29;98706.69;;;5.82;54.09
14790;BME280;7486;51.010;10.366;2023-04-27T07:58:15;98689.56;;;6.18;54.49
14790;BME280;7486;51.010;10.366;2023-04-27T08:01:00;98693.34;;;6.15;52.55
14790;BME280;7486;51.010;10.366;2023-04-27T08:03:45;98700.41;;;6.23;53.93
14790;BME280;7486;51.010;10.366;2023-04-27T08:06:31;98694.75;;;6.58;55.32
14790;BME280;7486;51.010;10.366;2023-04-27T08:09:17;98692.41;;;6.80;56.91
14790;BME280;7486;51.010;10.366;2023-04-27T08:12:03;98691.69;;;7.25;53.41
14790;BME280;7486;51.010;10.366;2023-04-27T08:14:48;98695.84;;;7.73;47.32
14790;BME280;7486;51.010;10.366;2023-04-27T08:17:33;98689.38;;;7.75;46.58
14790;BME280;7486;51.010;10.366;2023-04-27T08:20:19;98671.75;;;7.76;43.39
14790;BME280;7486;51.010;10.366;2023-04-27T08:23:05;98687.56;;;7.76;47.44
14790;BME280;7486;51.010;10.366;2023-04-27T08:25:50;98686.28;;;7.71;49.01
14790;BME280;7486;51.010;10.366;2023-04-27T08:28:35;98682.84;;;8.08;45.28
14790;BME280;7486;51.010;10.366;2023-04-27T08:31:21;98686.66;;;8.06;42.65
14790;BME280;7486;51.010;10.366;2023-04-27T08:34:06;98689.03;;;8.01;46.74
14790;BME280;7486;51.010;10.366;2023-04-27T08:36:51;98681.06;;;7.86;44.87
14790;BME280;7486;51.010;10.366;2023-04-27T08:39:37;98660.16;;;8.22;43.29
14790;BME280;7486;51.010;10.366;2023-04-27T08:42:23;98602.56;;;7.74;43.92
14790;BME280;7486;51.010;10.366;2023-04-27T08:45:08;98629.94;;;8.10;43.77
14790;BME280;7486;51.010;10.366;2023-04-27T08:47:54;98642.47;;;8.08;44.71
14790;BME280;7486;51.010;10.366;2023-04-27T08:50:42;98665.56;;;8.29;45.71
14790;BME280;7486;51.010;10.366;2023-04-27T08:53:28;98665.38;;;8.59;41.22
14790;BME280;7486;51.010;10.366;2023-04-27T08:56:13;98669.53;;;8.25;43.38
14790;BME280;7486;51.010;10.366;2023-04-27T08:58:59;98671.44;;;8.16;41.52
14790;BME280;7486;51.010;10.366;2023-04-27T09:01:46;98665.03;;;8.62;42.40
14790;BME280;7486;51.010;10.366;2023-04-27T09:04:40;98642.50;;;8.66;41.74
14790;BME280;7486;51.010;10.366;2023-04-27T09:07:26;98664.22;;;9.12;41.12
14790;BME280;7486;51.010;10.366;2023-04-27T09:10:13;98640.81;;;8.95;40.92
14790;BME280;7486;51.010;10.366;2023-04-27T09:12:59;98655.41;;;9.41;40.64
14790;BME280;7486;51.010;10.366;2023-04-27T09:15:50;98655.41;;;9.62;40.56
14790;BME280;7486;51.010;10.366;2023-04-27T09:18:36;98651.75;;;9.85;38.80
14790;BME280;7486;51.010;10.366;2023-04-27T09:21:26;98645.41;;;9.58;38.24
14790;BME280;7486;51.010;10.366;2023-04-27T09:24:12;98655.34;;;9.56;38.02
14790;BME280;7486;51.010;10.366;2023-04-27T09:26:58;98662.91;;;9.59;37.74
14790;BME280;7486;51.010;10.366;2023-04-27T09:29:45;98657.88;;;9.28;38.73
14790;BME280;7486;51.010;10.366;2023-04-27T09:32:30;98660.34;;;9.30;38.14
14790;BME280;7486;51.010;10.366;2023-04-27T09:35:21;98657.19;;;9.34;40.54
14790;BME280;7486;51.010;10.366;2023-04-27T09:38:09;98648.34;;;9.91;40.93
14790;BME280;7486;51.010;10.366;2023-04-27T09:41:19;98595.22;;;9.64;37.79
14790;BME280;7486;51.010;10.366;2023-04-27T09:44:30;98652.75;;;9.84;39.25
14790;BME280;7486;51.010;10.366;2023-04-27T09:47:22;98645.19;;;10.57;36.29
14790;BME280;7486;51.010;10.366;2023-04-27T09:50:11;98651.13;;;10.66;36.22
14790;BME280;7486;51.010;10.366;2023-04-27T09:52:56;98625.38;;;10.26;38.23
14790;BME280;7486;51.010;10.366;2023-04-27T09:59:01;98652.44;;;10.21;40.34
14790;BME280;7486;51.010;10.366;2023-04-27T10:01:59;98644.31;;;10.50;38.81
14790;BME280;7486;51.010;10.366;2023-04-27T10:08:06;98639.09;;;10.63;35.58
14790;BME280;7486;51.010;10.366;2023-04-27T10:10:52;98640.53;;;10.38;36.86
14790;BME280;7486;51.010;10.366;2023-04-27T10:13:37;98592.19;;;10.23;33.57
14790;BME280;7486;51.010;10.366;2023-04-27T10:16:24;98632.38;;;10.05;36.85
14790;BME280;7486;51.010;10.366;2023-04-27T10:19:09;98631.94;;;10.02;38.83
14790;BME280;7486;51.010;10.366;2023-04-27T10:21:57;98635.13;;;10.18;37.35
14790;BME280;7486;51.010;10.366;2023-04-27T10:24:48;98625.56;;;10.52;36.82
14790;BME280;7486;51.010;10.366;2023-04-27T10:27:38;98618.13;;;10.34;37.12
14790;BME280;7486;51.010;10.366;2023-04-27T10:30:25;98602.84;;;10.70;36.42
14790;BME280;7486;51.010;10.366;2023-04-27T10:33:15;98625.16;;;10.55;40.23
14790;BME280;7486;51.010;10.366;2023-04-27T10:36:01;98622.28;;;10.91;36.64
14790;BME280;7486;51.010;10.366;2023-04-27T10:38:55;98630.78;;;10.73;38.40
14790;BME280;7486;51.010;10.366;2023-04-27T10:41:49;98619.50;;;11.12;39.11
14790;BME280;7486;51.010;10.366;2023-04-27T10:44:35;98614.44;;;11.30;36.48
14790;BME280;7486;51.010;10.366;2023-04-27T10:47:21;98614.78;;;10.53;37.71
14790;BME280;7486;51.010;10.366;2023-04-27T10:50:09;98621.53;;;10.56;38.54
14790;BME280;7486;51.010;10.366;2023-04-27T10:52:59;98554.78;;;10.39;37.25
14790;BME280;7486;51.010;10.366;2023-04-27T10:55:45;98622.06;;;10.86;36.92
14790;BME280;7486;51.010;10.366;2023-04-27T10:58:34;98623.75;;;9.97;37.35
14790;BME280;7486;51.010;10.366;2023-04-27T11:01:34;98611.94;;;9.93;37.68
14790;BME280;7486;51.010;10.366;2023-04-27T11:04:19;98598.16;;;10.38;37.02
14790;BME280;7486;51.010;10.366;2023-04-27T11:07:08;98611.81;;;9.80;37.74
14790;BME280;7486;51.010;10.366;2023-04-27T11:09:54;98595.50;;;10.04;38.46
14790;BME280;7486;51.010;10.366;2023-04-27T11:12:40;98604.31;;;10.45;41.07
14790;BME280;7486;51.010;10.366;2023-04-27T11:15:25;98598.59;;;10.83;38.79
14790;BME280;7486;51.010;10.366;2023-04-27T11:18:10;98600.66;;;10.46;38.13
14790;BME280;7486;51.010;10.366;2023-04-27T11:21:12;98529.91;;;9.93;41.17
14790;BME280;7486;51.010;10.366;2023-04-27T11:24:05;98596.69;;;10.29;36.68
14790;BME280;7486;51.010;10.366;2023-04-27T11:26:51;98603.28;;;10.40;35.63
14790;BME280;7486;51.010;10.366;2023-04-27T11:29:37;98589.16;;;10.26;36.19
14790;BME280;7486;51.010;10.366;2023-04-27T11:32:22;98596.31;;;10.73;34.92
14790;BME280;7486;51.010;10.366;2023-04-27T11:35:08;98588.91;;;10.55;36.42
14790;BME280;7486;51.010;10.366;2023-04-27T11:37:57;98591.88;;;10.80;37.40
14790;BME280;7486;51.010;10.366;2023-04-27T11:40:43;98593.97;;;10.91;34.84
14790;BME280;7486;51.010;10.366;2023-04-27T11:43:28;98544.44;;;10.44;36.33
14790;BME280;7486;51.010;10.366;2023-04-27T11:46:14;98594.59;;;10.52;37.42
14790;BME280;7486;51.010;10.366;2023-04-27T11:49:00;98583.47;;;10.29;36.97
14790;BME280;7486;51.010;10.366;2023-04-27T11:51:46;98573.19;;;10.13;36.41
14790;BME280;7486;51.010;10.366;2023-04-27T11:54:31;98599.09;;;10.52;37.25
14790;BME280;7486;51.010;10.366;2023-04-27T11:57:17;98580.47;;;10.80;35.18
14790;BME280;7486;51.010;10.366;2023-04-27T12:00:04;98590.44;;;10.71;34.69
14790;BME280;7486;51.010;10.366;2023-04-27T12:02:57;98596.19;;;10.88;35.37
14790;BME280;7486;51.010;10.366;2023-04-27T12:05:49;98592.00;;;11.19;35.85
14790;BME280;7486;51.010;10.366;2023-04-27T12:08:35;98589.47;;;10.92;37.23
14790;BME280;7486;51.010;10.366;2023-04-27T12:11:20;98585.34;;;10.76;35.80
14790;BME280;7486;51.010;10.366;2023-04-27T12:14:05;98582.94;;;10.88;34.42
14790;BME280;7486;51.010;10.366;2023-04-27T12:16:51;98579.97;;;10.56;36.15
14790;BME280;7486;51.010;10.366;2023-04-27T12:19:36;98484.03;;;10.13;36.88
14790;BME280;7486;51.010;10.366;2023-04-27T12:22:21;98576.09;;;11.19;38.85
14790;BME280;7486;51.010;10.366;2023-04-27T12:25:07;98577.41;;;11.56;35.93
14790;BME280;7486;51.010;10.366;2023-04-27T12:27:52;98572.41;;;11.27;39.13
14790;BME280;7486;51.010;10.366;2023-04-27T12:30:38;98567.97;;;11.54;38.15
14790;BME280;7486;51.010;10.366;2023-04-27T12:33:23;98573.22;;;12.26;39.07
14790;BME280;7486;51.010;10.366;2023-04-27T12:36:09;98567.00;;;12.65;35.14
14790;BME280;7486;51.010;10.366;2023-04-27T12:38:58;98560.44;;;12.67;36.35
14790;BME280;7486;51.010;10.366;2023-04-27T12:41:46;98558.75;;;12.22;33.93
14790;BME280;7486;51.010;10.366;2023-04-27T12:44:31;98559.66;;;12.60;35.32
14790;BME280;7486;51.010;10.366;2023-04-27T12:47:17;98555.94;;;12.68;36.87
14790;BME280;7486;51.010;10.366;2023-04-27T12:50:22;98547.84;;;13.25;38.45
14790;BME280;7486;51.010;10.366;2023-04-27T12:53:08;98547.97;;;13.06;35.20
14790;BME280;7486;51.010;10.366;2023-04-27T12:55:53;98541.97;;;12.86;34.09
14790;BME280;7486;51.010;10.366;2023-04-27T12:58:38;98538.75;;;13.15;37.08
14790;BME280;7486;51.010;10.366;2023-04-27T13:01:25;98545.22;;;13.19;33.71
14790;BME280;7486;51.010;10.366;2023-04-27T13:04:18;98547.50;;;12.78;36.86
14790;BME280;7486;51.010;10.366;2023-04-27T13:07:05;98541.88;;;12.54;32.68
14790;BME280;7486;51.010;10.366;2023-04-27T13:09:50;98496.84;;;12.21;36.11
14790;BME280;7486;51.010;10.366;2023-04-27T13:12:35;98546.38;;;12.67;35.76
14790;BME280;7486;51.010;10.366;2023-04-27T13:15:20;98525.06;;;13.11;37.29
14790;BME280;7486;51.010;10.366;2023-04-27T13:18:05;98535.94;;;13.03;33.49
14790;BME280;7486;51.010;10.366;2023-04-27T13:20:51;98539.00;;;11.98;36.13
14790;BME280;7486;51.010;10.366;2023-04-27T13:23:37;98541.38;;;12.13;36.14
14790;BME280;7486;51.010;10.366;2023-04-27T13:26:22;98532.84;;;12.04;34.98
14790;BME280;7486;51.010;10.366;2023-04-27T13:29:07;98542.25;;;11.48;35.63
14790;BME280;7486;51.010;10.366;2023-04-27T13:31:52;98542.88;;;11.50;35.46
14790;BME280;7486;51.010;10.366;2023-04-27T13:34:37;98546.34;;;11.50;34.97
14790;BME280;7486;51.010;10.366;2023-04-27T13:37:23;98538.78;;;11.93;35.42
14790;BME280;7486;51.010;10.366;2023-04-27T13:40:11;98532.34;;;12.34;35.60
14790;BME280;7486;51.010;10.366;2023-04-27T13:42:57;98519.56;;;12.68;36.32
14790;BME280;7486;51.010;10.366;2023-04-27T13:45:42;98525.78;;;12.94;35.23
14790;BME280;7486;51.010;10.366;2023-04-27T13:48:28;98526.88;;;12.80;33.83
14790;BME280;7486;51.010;10.366;2023-04-27T13:51:13;98529.44;;;12.93;32.69
14790;BME280;7486;51.010;10.366;2023-04-27T13:53:59;98522.63;;;13.03;36.82
14790;BME280;7486;51.010;10.366;2023-04-27T13:56:44;98514.84;;;13.33;34.89
14790;BME280;7486;51.010;10.366;2023-04-27T13:59:30;98519.59;;;13.31;33.30
14790;BME280;7486;51.010;10.366;2023-04-27T14:02:15;98525.66;;;12.76;33.30
14790;BME280;7486;51.010;10.366;2023-04-27T14:05:00;98532.28;;;12.53;34.12
14790;BME280;7486;51.010;10.366;2023-04-27T14:07:46;98528.50;;;12.74;34.03
14790;BME280;7486;51.010;10.366;2023-04-27T14:10:31;98526.22;;;12.33;33.90
14790;BME280;7486;51.010;10.366;2023-04-27T14:13:18;98524.09;;;12.61;33.74
14790;BME280;7486;51.010;10.366;2023-04-27T14:16:05;98504.28;;;12.57;34.64
14790;BME280;7486;51.010;10.366;2023-04-27T14:18:51;98453.03;;;11.86;37.09
14790;BME280;7486;51.010;10.366;2023-04-27T14:21:37;98520.41;;;11.98;35.98
14790;BME280;7486;51.010;10.366;2023-04-27T14:24:22;98523.97;;;12.30;39.45
14790;BME280;7486;51.010;10.366;2023-04-27T14:27:08;98519.22;;;12.45;35.46
14790;BME280;7486;51.010;10.366;2023-04-27T14:29:53;98508.81;;;12.88;34.97
14790;BME280;7486;51.010;10.366;2023-04-27T14:32:39;98497.50;;;12.61;35.15
14790;BME280;7486;51.010;10.366;2023-04-27T14:35:24;98512.28;;;12.89;35.51
14790;BME280;7486;51.010;10.366;2023-04-27T14:38:09;98476.75;;;12.83;34.55
14790;BME280;7486;51.010;10.366;2023-04-27T14:40:55;98508.91;;;12.75;34.51
14790;BME280;7486;51.010;10.366;2023-04-27T14:43:40;98513.16;;;12.83;36.30
14790;BME280;7486;51.010;10.366;2023-04-27T14:46:26;98498.22;;;12.82;32.97
14790;BME280;7486;51.010;10.366;2023-04-27T14:49:11;98499.16;;;12.62;33.82
14790;BME280;7486;51.010;10.366;2023-04-27T14:51:56;98501.06;;;12.42;33.92
14790;BME280;7486;51.010;10.366;2023-04-27T14:54:42;98501.28;;;12.34;34.81